sensor_id;sensor_type;location;lat;lon;timestamp;P1;durP1;ratioP1;P2;durP2;ratioP2
69081;SDS011;56184;51.986;5.760;2023-01-19T00:01:32;18.08;;;9.65;;
69081;SDS011;56184;51.986;5.760;2023-01-19T00:04:00;14.85;;;9.93;;
69081;SDS011;56184;51.986;5.760;2023-01-19T00:06:32;23.10;;;10.82;;
69081;SDS011;56184;51.986;5.760;2023-01-19T00:09:00;22.25;;;10.15;;
69081;SDS011;56184;51.986;5.760;2023-01-19T00:11:32;16.95;;;9.48;;
69081;SDS011;56184;51.986;5.760;2023-01-19T00:14:04;19.27;;;9.80;;
69081;SDS011;56184;51.986;5.760;2023-01-19T00:19:47;15.13;;;8.65;;
69081;SDS011;56184;51.986;5.760;2023-01-19T00:22:13;26.13;;;10.00;;
69081;SDS011;56184;51.986;5.760;2023-01-19T00:24:38;21.65;;;10.25;;
69081;SDS011;56184;51.986;5.760;2023-01-19T00:27:13;18.67;;;10.43;;
69081;SDS011;56184;51.986;5.760;2023-01-19T00:29:43;14.32;;;9.32;;
69081;SDS011;56184;51.986;5.760;2023-01-19T00:32:11;21.10;;;10.70;;
69081;SDS011;56184;51.986;5.760;2023-01-19T00:34:41;17.58;;;10.52;;
69081;SDS011;56184;51.986;5.760;2023-01-19T00:37:16;20.52;;;10.40;;
69081;SDS011;56184;51.986;5.760;2023-01-19T00:39:44;19.50;;;10.02;;
69081;SDS011;56184;51.986;5.760;2023-01-19T00:42:16;15.32;;;9.68;;
69081;SDS011;56184;51.986;5.760;2023-01-19T00:45:15;16.02;;;9.68;;
69081;SDS011;56184;51.986;5.760;2023-01-19T00:47:46;18.65;;;10.55;;
69081;SDS011;56184;51.986;5.760;2023-01-19T00:50:16;15.73;;;9.88;;
69081;SDS011;56184;51.986;5.760;2023-01-19T00:52:47;18.35;;;10.10;;
69081;SDS011;56184;51.986;5.760;2023-01-19T00:55:26;23.55;;;10.38;;
69081;SDS011;56184;51.986;5.760;2023-01-19T00:57:52;18.50;;;10.32;;
69081;SDS011;56184;51.986;5.760;2023-01-19T01:00:25;16.20;;;9.70;;
69081;SDS011;56184;51.986;5.760;2023-01-19T01:02:57;17.60;;;10.77;;
69081;SDS011;56184;51.986;5.760;2023-01-19T01:05:25;17.63;;;9.80;;
69081;SDS011;56184;51.986;5.760;2023-01-19T01:07:59;18.83;;;10.27;;
69081;SDS011;56184;51.986;5.760;2023-01-19T01:10:28;14.25;;;9.48;;
69081;SDS011;56184;51.986;5.760;2023-01-19T01:12:55;16.33;;;9.50;;
69081;SDS011;56184;51.986;5.760;2023-01-19T01:15:29;14.35;;;8.40;;
69081;SDS011;56184;51.986;5.760;2023-01-19T01:17:58;17.23;;;9.43;;
69081;SDS011;56184;51.986;5.760;2023-01-19T01:20:33;14.98;;;8.77;;
69081;SDS011;56184;51.986;5.760;2023-01-19T01:23:01;15.77;;;8.52;;
69081;SDS011;56184;51.986;5.760;2023-01-19T01:25:30;15.65;;;8.38;;
69081;SDS011;56184;51.986;5.760;2023-01-19T01:28:02;12.68;;;8.00;;
69081;SDS011;56184;51.986;5.760;2023-01-19T01:30:32;17.70;;;8.48;;
69081;SDS011;56184;51.986;5.760;2023-01-19T01:33:02;17.25;;;8.32;;
69081;SDS011;56184;51.986;5.760;2023-01-19T01:35:33;15.52;;;8.75;;
69081;SDS011;56184;51.986;5.760;2023-01-19T01:38:00;13.00;;;7.17;;
69081;SDS011;56184;51.986;5.760;2023-01-19T01:40:27;18.67;;;8.20;;
69081;SDS011;56184;51.986;5.760;2023-01-19T01:43:02;13.63;;;7.10;;
69081;SDS011;56184;51.986;5.760;2023-01-19T01:45:40;13.63;;;7.45;;
69081;SDS011;56184;51.986;5.760;2023-01-19T01:50:59;17.02;;;8.23;;
69081;SDS011;56184;51.986;5.760;2023-01-19T01:54:15;12.75;;;7.82;;
69081;SDS011;56184;51.986;5.760;2023-01-19T01:59:56;11.32;;;7.95;;
69081;SDS011;56184;51.986;5.760;2023-01-19T02:02:26;14.75;;;8.13;;
69081;SDS011;56184;51.986;5.760;2023-01-19T02:05:23;17.95;;;8.60;;
69081;SDS011;56184;51.986;5.760;2023-01-19T02:08:17;12.73;;;8.50;;
69081;SDS011;56184;51.986;5.760;2023-01-19T02:11:24;13.90;;;8.15;;
69081;SDS011;56184;51.986;5.760;2023-01-19T02:29:56;12.20;;;8.50;;
69081;SDS011;56184;51.986;5.760;2023-01-19T02:32:23;11.30;;;7.63;;
69081;SDS011;56184;51.986;5.760;2023-01-19T02:37:56;12.10;;;7.55;;
69081;SDS011;56184;51.986;5.760;2023-01-19T02:40:22;16.30;;;7.95;;
69081;SDS011;56184;51.986;5.760;2023-01-19T02:46:09;11.60;;;6.60;;
69081;SDS011;56184;51.986;5.760;2023-01-19T02:48:35;12.70;;;6.55;;
69081;SDS011;56184;51.986;5.760;2023-01-19T02:51:01;11.05;;;6.10;;
69081;SDS011;56184;51.986;5.760;2023-01-19T02:57:01;8.88;;;5.20;;
69081;SDS011;56184;51.986;5.760;2023-01-19T03:08:52;7.10;;;3.95;;
69081;SDS011;56184;51.986;5.760;2023-01-19T03:11:45;6.25;;;3.58;;
69081;SDS011;56184;51.986;5.760;2023-01-19T03:14:46;3.40;;;2.80;;
69081;SDS011;56184;51.986;5.760;2023-01-19T03:17:12;3.85;;;2.75;;
69081;SDS011;56184;51.986;5.760;2023-01-19T03:19:50;3.35;;;2.55;;
69081;SDS011;56184;51.986;5.760;2023-01-19T03:25:07;2.03;;;1.80;;
69081;SDS011;56184;51.986;5.760;2023-01-19T03:27:37;4.28;;;1.50;;
69081;SDS011;56184;51.986;5.760;2023-01-19T03:30:10;2.42;;;1.30;;
69081;SDS011;56184;51.986;5.760;2023-01-19T03:33:01;2.00;;;1.45;;
69081;SDS011;56184;51.986;5.760;2023-01-19T03:35:47;1.20;;;1.00;;
69081;SDS011;56184;51.986;5.760;2023-01-19T03:38:17;4.13;;;1.05;;
69081;SDS011;56184;51.986;5.760;2023-01-19T03:41:09;5.00;;;1.10;;
69081;SDS011;56184;51.986;5.760;2023-01-19T03:43:39;5.70;;;1.20;;
69081;SDS011;56184;51.986;5.760;2023-01-19T03:46:08;1.38;;;0.68;;
69081;SDS011;56184;51.986;5.760;2023-01-19T03:48:43;6.45;;;0.90;;
69081;SDS011;56184;51.986;5.760;2023-01-19T03:51:10;1.80;;;0.50;;
69081;SDS011;56184;51.986;5.760;2023-01-19T03:53:40;0.77;;;0.52;;
69081;SDS011;56184;51.986;5.760;2023-01-19T03:56:18;6.40;;;0.77;;
69081;SDS011;56184;51.986;5.760;2023-01-19T03:58:45;4.13;;;0.65;;
69081;SDS011;56184;51.986;5.760;2023-01-19T04:01:14;4.25;;;0.50;;
69081;SDS011;56184;51.986;5.760;2023-01-19T04:03:45;5.05;;;0.55;;
69081;SDS011;56184;51.986;5.760;2023-01-19T04:06:13;3.00;;;0.47;;
69081;SDS011;56184;51.986;5.760;2023-01-19T04:08:49;1.42;;;0.50;;
69081;SDS011;56184;51.986;5.760;2023-01-19T04:11:15;0.40;;;0.40;;
69081;SDS011;56184;51.986;5.760;2023-01-19T04:13:46;0.90;;;0.40;;
69081;SDS011;56184;51.986;5.760;2023-01-19T04:16:19;1.20;;;0.40;;
69081;SDS011;56184;51.986;5.760;2023-01-19T04:18:45;1.08;;;0.60;;
69081;SDS011;56184;51.986;5.760;2023-01-19T04:21:26;4.00;;;0.70;;
69081;SDS011;56184;51.986;5.760;2023-01-19T04:23:51;1.98;;;0.55;;
69081;SDS011;56184;51.986;5.760;2023-01-19T04:26:24;1.85;;;0.57;;
69081;SDS011;56184;51.986;5.760;2023-01-19T04:28:55;0.50;;;0.50;;
69081;SDS011;56184;51.986;5.760;2023-01-19T04:31:28;1.67;;;0.90;;
69081;SDS011;56184;51.986;5.760;2023-01-19T04:33:55;2.38;;;0.60;;
69081;SDS011;56184;51.986;5.760;2023-01-19T04:39:15;2.28;;;0.73;;
69081;SDS011;56184;51.986;5.760;2023-01-19T04:41:49;0.60;;;0.60;;
69081;SDS011;56184;51.986;5.760;2023-01-19T04:44:22;4.18;;;0.73;;
69081;SDS011;56184;51.986;5.760;2023-01-19T04:46:54;2.00;;;0.90;;
69081;SDS011;56184;51.986;5.760;2023-01-19T04:49:25;2.28;;;1.00;;
69081;SDS011;56184;51.986;5.760;2023-01-19T04:51:51;4.18;;;1.10;;
69081;SDS011;56184;51.986;5.760;2023-01-19T04:54:21;1.10;;;0.85;;
69081;SDS011;56184;51.986;5.760;2023-01-19T04:56:55;3.58;;;1.15;;
69081;SDS011;56184;51.986;5.760;2023-01-19T04:59:24;1.20;;;1.10;;
69081;SDS011;56184;51.986;5.760;2023-01-19T05:01:49;1.73;;;0.70;;
69081;SDS011;56184;51.986;5.760;2023-01-19T05:04:18;1.85;;;0.65;;
69081;SDS011;56184;51.986;5.760;2023-01-19T05:06:59;1.45;;;0.70;;
69081;SDS011;56184;51.986;5.760;2023-01-19T05:09:27;1.58;;;0.60;;
69081;SDS011;56184;51.986;5.760;2023-01-19T05:11:58;2.75;;;0.70;;
69081;SDS011;56184;51.986;5.760;2023-01-19T05:14:25;1.42;;;0.57;;
69081;SDS011;56184;51.986;5.760;2023-01-19T05:16:50;3.95;;;1.20;;
69081;SDS011;56184;51.986;5.760;2023-01-19T05:19:22;5.13;;;0.80;;
69081;SDS011;56184;51.986;5.760;2023-01-19T05:21:47;2.67;;;0.80;;
69081;SDS011;56184;51.986;5.760;2023-01-19T05:24:15;2.97;;;0.60;;
69081;SDS011;56184;51.986;5.760;2023-01-19T05:26:44;3.63;;;0.75;;
69081;SDS011;56184;51.986;5.760;2023-01-19T05:29:15;4.95;;;0.70;;
69081;SDS011;56184;51.986;5.760;2023-01-19T05:31:43;3.60;;;0.90;;
69081;SDS011;56184;51.986;5.760;2023-01-19T05:34:15;2.58;;;0.63;;
69081;SDS011;56184;51.986;5.760;2023-01-19T05:36:41;3.45;;;0.77;;
69081;SDS011;56184;51.986;5.760;2023-01-19T05:39:07;2.95;;;0.70;;
69081;SDS011;56184;51.986;5.760;2023-01-19T05:41:34;8.98;;;0.88;;
69081;SDS011;56184;51.986;5.760;2023-01-19T05:44:00;3.58;;;0.70;;
69081;SDS011;56184;51.986;5.760;2023-01-19T05:46:28;6.43;;;0.70;;
69081;SDS011;56184;51.986;5.760;2023-01-19T05:49:03;2.97;;;0.70;;
69081;SDS011;56184;51.986;5.760;2023-01-19T05:51:31;2.53;;;0.50;;
69081;SDS011;56184;51.986;5.760;2023-01-19T05:54:11;5.72;;;0.90;;
69081;SDS011;56184;51.986;5.760;2023-01-19T05:56:57;1.88;;;0.65;;
69081;SDS011;56184;51.986;5.760;2023-01-19T06:01:57;4.05;;;0.82;;
69081;SDS011;56184;51.986;5.760;2023-01-19T06:04:29;7.63;;;1.08;;
69081;SDS011;56184;51.986;5.760;2023-01-19T06:07:00;13.38;;;1.27;;
69081;SDS011;56184;51.986;5.760;2023-01-19T06:09:26;6.30;;;1.10;;
69081;SDS011;56184;51.986;5.760;2023-01-19T06:11:56;7.55;;;0.82;;
69081;SDS011;56184;51.986;5.760;2023-01-19T06:17:25;8.68;;;1.17;;
69081;SDS011;56184;51.986;5.760;2023-01-19T06:19:57;10.07;;;1.42;;
69081;SDS011;56184;51.986;5.760;2023-01-19T06:22:29;8.18;;;1.40;;
69081;SDS011;56184;51.986;5.760;2023-01-19T06:24:54;8.52;;;1.55;;
69081;SDS011;56184;51.986;5.760;2023-01-19T06:27:35;12.13;;;1.38;;
69081;SDS011;56184;51.986;5.760;2023-01-19T06:33:06;9.05;;;1.52;;
69081;SDS011;56184;51.986;5.760;2023-01-19T06:35:31;11.48;;;1.33;;
69081;SDS011;56184;51.986;5.760;2023-01-19T06:37:58;13.50;;;1.45;;
69081;SDS011;56184;51.986;5.760;2023-01-19T06:40:27;7.35;;;1.58;;
69081;SDS011;56184;51.986;5.760;2023-01-19T06:42:58;11.02;;;1.60;;
69081;SDS011;56184;51.986;5.760;2023-01-19T06:45:30;7.18;;;1.60;;
69081;SDS011;56184;51.986;5.760;2023-01-19T06:47:56;9.57;;;1.40;;
69081;SDS011;56184;51.986;5.760;2023-01-19T06:50:24;9.20;;;1.33;;
69081;SDS011;56184;51.986;5.760;2023-01-19T06:52:50;9.00;;;1.58;;
69081;SDS011;56184;51.986;5.760;2023-01-19T06:55:16;7.72;;;1.45;;
69081;SDS011;56184;51.986;5.760;2023-01-19T06:57:42;10.30;;;1.65;;
69081;SDS011;56184;51.986;5.760;2023-01-19T07:00:08;8.57;;;1.35;;
69081;SDS011;56184;51.986;5.760;2023-01-19T07:02:36;15.25;;;2.40;;
69081;SDS011;56184;51.986;5.760;2023-01-19T07:05:04;9.18;;;1.40;;
69081;SDS011;56184;51.986;5.760;2023-01-19T07:07:31;17.80;;;1.50;;
69081;SDS011;56184;51.986;5.760;2023-01-19T07:09:56;12.35;;;2.30;;
69081;SDS011;56184;51.986;5.760;2023-01-19T07:12:22;9.38;;;1.75;;
69081;SDS011;56184;51.986;5.760;2023-01-19T07:14:48;9.10;;;1.83;;
69081;SDS011;56184;51.986;5.760;2023-01-19T07:17:13;6.85;;;1.35;;
69081;SDS011;56184;51.986;5.760;2023-01-19T07:19:39;10.80;;;1.85;;
69081;SDS011;56184;51.986;5.760;2023-01-19T07:22:05;9.10;;;1.65;;
69081;SDS011;56184;51.986;5.760;2023-01-19T07:24:36;10.10;;;1.75;;
69081;SDS011;56184;51.986;5.760;2023-01-19T07:27:02;8.18;;;1.58;;
69081;SDS011;56184;51.986;5.760;2023-01-19T07:29:29;14.05;;;2.00;;
69081;SDS011;56184;51.986;5.760;2023-01-19T07:31:54;8.27;;;1.92;;
69081;SDS011;56184;51.986;5.760;2023-01-19T07:34:20;15.38;;;2.00;;
69081;SDS011;56184;51.986;5.760;2023-01-19T07:36:46;13.20;;;2.22;;
69081;SDS011;56184;51.986;5.760;2023-01-19T07:39:12;7.63;;;2.13;;
69081;SDS011;56184;51.986;5.760;2023-01-19T07:41:37;10.02;;;2.38;;
69081;SDS011;56184;51.986;5.760;2023-01-19T07:44:03;8.45;;;2.28;;
69081;SDS011;56184;51.986;5.760;2023-01-19T07:46:29;6.82;;;2.38;;
69081;SDS011;56184;51.986;5.760;2023-01-19T07:48:55;13.45;;;2.95;;
69081;SDS011;56184;51.986;5.760;2023-01-19T07:51:20;11.65;;;3.13;;
69081;SDS011;56184;51.986;5.760;2023-01-19T07:53:48;6.57;;;2.88;;
69081;SDS011;56184;51.986;5.760;2023-01-19T07:56:14;8.63;;;3.00;;
69081;SDS011;56184;51.986;5.760;2023-01-19T07:58:40;10.73;;;2.83;;
69081;SDS011;56184;51.986;5.760;2023-01-19T08:01:09;14.48;;;2.92;;
69081;SDS011;56184;51.986;5.760;2023-01-19T08:03:37;9.77;;;3.00;;
69081;SDS011;56184;51.986;5.760;2023-01-19T08:06:03;12.80;;;3.05;;
69081;SDS011;56184;51.986;5.760;2023-01-19T08:08:30;11.02;;;2.92;;
69081;SDS011;56184;51.986;5.760;2023-01-19T08:10:56;13.98;;;3.05;;
69081;SDS011;56184;51.986;5.760;2023-01-19T08:13:21;14.02;;;3.65;;
69081;SDS011;56184;51.986;5.760;2023-01-19T08:15:53;13.55;;;3.47;;
69081;SDS011;56184;51.986;5.760;2023-01-19T08:18:34;8.80;;;4.05;;
69081;SDS011;56184;51.986;5.760;2023-01-19T08:24:28;10.90;;;3.78;;
69081;SDS011;56184;51.986;5.760;2023-01-19T08:26:58;12.07;;;3.53;;
69081;SDS011;56184;51.986;5.760;2023-01-19T08:29:45;12.80;;;3.58;;
69081;SDS011;56184;51.986;5.760;2023-01-19T08:32:23;12.35;;;3.72;;
69081;SDS011;56184;51.986;5.760;2023-01-19T08:34:48;10.57;;;4.25;;
69081;SDS011;56184;51.986;5.760;2023-01-19T08:37:25;13.15;;;3.83;;
69081;SDS011;56184;51.986;5.760;2023-01-19T08:39:51;8.00;;;3.83;;
69081;SDS011;56184;51.986;5.760;2023-01-19T08:42:28;10.55;;;4.13;;
69081;SDS011;56184;51.986;5.760;2023-01-19T08:45:08;10.30;;;2.97;;
69081;SDS011;56184;51.986;5.760;2023-01-19T08:47:43;13.65;;;3.75;;
69081;SDS011;56184;51.986;5.760;2023-01-19T08:50:18;10.95;;;3.05;;
69081;SDS011;56184;51.986;5.760;2023-01-19T08:55:35;13.68;;;4.03;;
69081;SDS011;56184;51.986;5.760;2023-01-19T08:58:01;10.88;;;3.60;;
69081;SDS011;56184;51.986;5.760;2023-01-19T09:00:46;16.48;;;3.55;;
69081;SDS011;56184;51.986;5.760;2023-01-19T09:03:12;11.10;;;3.08;;
69081;SDS011;56184;51.986;5.760;2023-01-19T09:05:39;10.35;;;3.30;;
69081;SDS011;56184;51.986;5.760;2023-01-19T09:10:58;13.88;;;3.78;;
69081;SDS011;56184;51.986;5.760;2023-01-19T09:13:24;10.27;;;3.33;;
69081;SDS011;56184;51.986;5.760;2023-01-19T09:15:55;12.73;;;3.45;;
69081;SDS011;56184;51.986;5.760;2023-01-19T09:18:26;11.30;;;3.22;;
69081;SDS011;56184;51.986;5.760;2023-01-19T09:20:55;16.33;;;3.53;;
69081;SDS011;56184;51.986;5.760;2023-01-19T09:23:24;17.05;;;3.63;;
69081;SDS011;56184;51.986;5.760;2023-01-19T09:26:00;14.05;;;2.85;;
69081;SDS011;56184;51.986;5.760;2023-01-19T09:28:33;12.15;;;3.20;;
69081;SDS011;56184;51.986;5.760;2023-01-19T09:31:02;14.93;;;2.75;;
69081;SDS011;56184;51.986;5.760;2023-01-19T09:36:26;11.95;;;2.90;;
69081;SDS011;56184;51.986;5.760;2023-01-19T09:38:56;8.88;;;2.55;;
69081;SDS011;56184;51.986;5.760;2023-01-19T09:41:22;14.23;;;2.40;;
69081;SDS011;56184;51.986;5.760;2023-01-19T09:44:05;13.80;;;2.58;;
69081;SDS011;56184;51.986;5.760;2023-01-19T09:46:38;9.57;;;2.25;;
69081;SDS011;56184;51.986;5.760;2023-01-19T09:51:50;9.45;;;1.98;;
69081;SDS011;56184;51.986;5.760;2023-01-19T09:54:20;10.95;;;1.98;;
69081;SDS011;56184;51.986;5.760;2023-01-19T09:56:54;14.43;;;2.15;;
69081;SDS011;56184;51.986;5.760;2023-01-19T09:59:30;16.80;;;1.70;;
69081;SDS011;56184;51.986;5.760;2023-01-19T10:05:07;17.65;;;2.30;;
69081;SDS011;56184;51.986;5.760;2023-01-19T10:13:40;11.32;;;1.90;;
69081;SDS011;56184;51.986;5.760;2023-01-19T10:18:49;15.25;;;2.00;;
69081;SDS011;56184;51.986;5.760;2023-01-19T10:21:19;9.57;;;1.75;;
69081;SDS011;56184;51.986;5.760;2023-01-19T10:30:03;6.97;;;1.30;;
69081;SDS011;56184;51.986;5.760;2023-01-19T10:32:48;8.10;;;1.77;;
69081;SDS011;56184;51.986;5.760;2023-01-19T10:35:15;11.77;;;1.98;;
69081;SDS011;56184;51.986;5.760;2023-01-19T10:37:47;16.87;;;2.07;;
69081;SDS011;56184;51.986;5.760;2023-01-19T10:46:01;16.35;;;2.90;;
69081;SDS011;56184;51.986;5.760;2023-01-19T10:48:37;14.30;;;3.70;;
69081;SDS011;56184;51.986;5.760;2023-01-19T10:51:23;14.82;;;4.65;;
69081;SDS011;56184;51.986;5.760;2023-01-19T10:54:04;22.67;;;3.75;;
69081;SDS011;56184;51.986;5.760;2023-01-19T10:56:51;14.05;;;4.38;;
69081;SDS011;56184;51.986;5.760;2023-01-19T10:59:45;13.50;;;3.75;;
69081;SDS011;56184;51.986;5.760;2023-01-19T11:02:31;13.70;;;4.22;;
69081;SDS011;56184;51.986;5.760;2023-01-19T11:04:58;20.45;;;4.00;;
69081;SDS011;56184;51.986;5.760;2023-01-19T11:07:50;15.75;;;3.95;;
69081;SDS011;56184;51.986;5.760;2023-01-19T11:12:45;19.20;;;3.95;;
69081;SDS011;56184;51.986;5.760;2023-01-19T11:15:27;17.08;;;4.30;;
69081;SDS011;56184;51.986;5.760;2023-01-19T11:17:55;11.93;;;3.53;;
69081;SDS011;56184;51.986;5.760;2023-01-19T11:20:23;15.02;;;3.78;;
69081;SDS011;56184;51.986;5.760;2023-01-19T11:23:04;13.45;;;3.78;;
69081;SDS011;56184;51.986;5.760;2023-01-19T11:25:49;12.82;;;3.20;;
69081;SDS011;56184;51.986;5.760;2023-01-19T11:28:19;11.50;;;3.55;;
69081;SDS011;56184;51.986;5.760;2023-01-19T11:31:18;11.13;;;3.58;;
69081;SDS011;56184;51.986;5.760;2023-01-19T11:37:03;16.90;;;4.22;;
69081;SDS011;56184;51.986;5.760;2023-01-19T11:40:00;14.07;;;4.40;;
69081;SDS011;56184;51.986;5.760;2023-01-19T11:42:30;21.23;;;5.20;;
69081;SDS011;56184;51.986;5.760;2023-01-19T11:45:16;15.07;;;4.45;;
69081;SDS011;56184;51.986;5.760;2023-01-19T11:47:49;20.10;;;4.95;;
69081;SDS011;56184;51.986;5.760;2023-01-19T11:50:50;19.60;;;5.40;;
69081;SDS011;56184;51.986;5.760;2023-01-19T11:53:24;16.17;;;5.15;;
69081;SDS011;56184;51.986;5.760;2023-01-19T11:55:56;13.43;;;4.43;;
69081;SDS011;56184;51.986;5.760;2023-01-19T11:59:00;12.43;;;4.53;;
69081;SDS011;56184;51.986;5.760;2023-01-19T12:01:30;15.25;;;4.80;;
69081;SDS011;56184;51.986;5.760;2023-01-19T12:06:59;13.23;;;4.80;;
69081;SDS011;56184;51.986;5.760;2023-01-19T12:12:56;7.80;;;3.78;;
69081;SDS011;56184;51.986;5.760;2023-01-19T12:18:11;8.90;;;3.22;;
69081;SDS011;56184;51.986;5.760;2023-01-19T12:21:01;17.38;;;3.90;;
69081;SDS011;56184;51.986;5.760;2023-01-19T12:26:50;13.02;;;3.67;;
69081;SDS011;56184;51.986;5.760;2023-01-19T12:29:56;17.48;;;4.05;;
69081;SDS011;56184;51.986;5.760;2023-01-19T12:32:31;15.45;;;3.58;;
69081;SDS011;56184;51.986;5.760;2023-01-19T12:53:29;12.02;;;3.85;;
69081;SDS011;56184;51.986;5.760;2023-01-19T12:55:58;10.20;;;3.03;;
69081;SDS011;56184;51.986;5.760;2023-01-19T12:58:30;13.38;;;3.13;;
69081;SDS011;56184;51.986;5.760;2023-01-19T13:01:17;9.45;;;3.90;;
69081;SDS011;56184;51.986;5.760;2023-01-19T13:03:57;10.05;;;3.60;;
69081;SDS011;56184;51.986;5.760;2023-01-19T13:14:42;2.08;;;0.75;;
69081;SDS011;56184;51.986;5.760;2023-01-19T13:17:25;3.17;;;0.95;;
69081;SDS011;56184;51.986;5.760;2023-01-19T13:20:01;3.10;;;0.63;;
69081;SDS011;56184;51.986;5.760;2023-01-19T13:25:40;2.10;;;0.60;;
69081;SDS011;56184;51.986;5.760;2023-01-19T13:28:11;7.60;;;0.88;;
69081;SDS011;56184;51.986;5.760;2023-01-19T13:30:44;2.70;;;0.80;;
69081;SDS011;56184;51.986;5.760;2023-01-19T13:33:21;3.60;;;0.80;;
69081;SDS011;56184;51.986;5.760;2023-01-19T13:35:56;2.85;;;0.90;;
69081;SDS011;56184;51.986;5.760;2023-01-19T13:38:23;2.75;;;1.05;;
69081;SDS011;56184;51.986;5.760;2023-01-19T13:41:11;2.00;;;0.55;;
69081;SDS011;56184;51.986;5.760;2023-01-19T13:47:01;5.18;;;0.80;;
69081;SDS011;56184;51.986;5.760;2023-01-19T13:49:31;4.53;;;1.00;;
69081;SDS011;56184;51.986;5.760;2023-01-19T13:54:29;3.95;;;0.90;;
69081;SDS011;56184;51.986;5.760;2023-01-19T13:56:55;7.40;;;1.10;;
69081;SDS011;56184;51.986;5.760;2023-01-19T13:59:59;2.78;;;0.65;;
69081;SDS011;56184;51.986;5.760;2023-01-19T14:05:59;3.13;;;0.80;;
69081;SDS011;56184;51.986;5.760;2023-01-19T14:08:42;3.30;;;1.10;;
69081;SDS011;56184;51.986;5.760;2023-01-19T14:11:36;4.85;;;1.30;;
69081;SDS011;56184;51.986;5.760;2023-01-19T14:17:02;2.97;;;0.88;;
69081;SDS011;56184;51.986;5.760;2023-01-19T14:19:28;2.83;;;0.90;;
69081;SDS011;56184;51.986;5.760;2023-01-19T14:21:57;3.92;;;1.30;;
69081;SDS011;56184;51.986;5.760;2023-01-19T14:31:19;7.40;;;0.70;;
69081;SDS011;56184;51.986;5.760;2023-01-19T14:33:49;4.07;;;0.98;;
69081;SDS011;56184;51.986;5.760;2023-01-19T14:36:35;2.65;;;0.80;;
69081;SDS011;56184;51.986;5.760;2023-01-19T14:39:22;4.88;;;1.10;;
69081;SDS011;56184;51.986;5.760;2023-01-19T14:41:53;6.63;;;0.98;;
69081;SDS011;56184;51.986;5.760;2023-01-19T14:47:26;4.13;;;0.90;;
69081;SDS011;56184;51.986;5.760;2023-01-19T14:49:55;2.80;;;0.93;;
69081;SDS011;56184;51.986;5.760;2023-01-19T14:52:26;2.22;;;0.80;;
69081;SDS011;56184;51.986;5.760;2023-01-19T14:55:02;3.42;;;0.80;;
69081;SDS011;56184;51.986;5.760;2023-01-19T14:57:41;8.18;;;1.25;;
69081;SDS011;56184;51.986;5.760;2023-01-19T15:00:13;4.70;;;1.30;;
69081;SDS011;56184;51.986;5.760;2023-01-19T15:09:25;4.18;;;1.38;;
69081;SDS011;56184;51.986;5.760;2023-01-19T15:12:00;2.13;;;0.88;;
69081;SDS011;56184;51.986;5.760;2023-01-19T15:14:35;2.33;;;1.05;;
69081;SDS011;56184;51.986;5.760;2023-01-19T15:17:00;10.02;;;2.15;;
69081;SDS011;56184;51.986;5.760;2023-01-19T15:19:35;3.13;;;1.17;;
69081;SDS011;56184;51.986;5.760;2023-01-19T15:22:01;4.55;;;1.17;;
69081;SDS011;56184;51.986;5.760;2023-01-19T15:24:59;3.35;;;1.25;;
69081;SDS011;56184;51.986;5.760;2023-01-19T15:27:28;5.00;;;1.10;;
69081;SDS011;56184;51.986;5.760;2023-01-19T15:39:43;6.10;;;1.15;;
69081;SDS011;56184;51.986;5.760;2023-01-19T15:52:18;7.72;;;2.88;;
69081;SDS011;56184;51.986;5.760;2023-01-19T15:54:50;7.63;;;3.38;;
69081;SDS011;56184;51.986;5.760;2023-01-19T15:57:21;7.85;;;3.20;;
69081;SDS011;56184;51.986;5.760;2023-01-19T15:59:52;13.40;;;3.50;;
69081;SDS011;56184;51.986;5.760;2023-01-19T16:02:20;15.40;;;5.32;;
69081;SDS011;56184;51.986;5.760;2023-01-19T16:04:54;18.95;;;6.40;;
69081;SDS011;56184;51.986;5.760;2023-01-19T16:07:20;15.00;;;6.25;;
69081;SDS011;56184;51.986;5.760;2023-01-19T16:09:45;14.65;;;6.82;;
69081;SDS011;56184;51.986;5.760;2023-01-19T16:12:23;16.48;;;6.95;;
69081;SDS011;56184;51.986;5.760;2023-01-19T16:14:48;15.23;;;7.63;;
69081;SDS011;56184;51.986;5.760;2023-01-19T16:17:19;21.50;;;7.53;;
69081;SDS011;56184;51.986;5.760;2023-01-19T16:19:48;14.60;;;7.25;;
69081;SDS011;56184;51.986;5.760;2023-01-19T16:22:25;13.30;;;7.75;;
69081;SDS011;56184;51.986;5.760;2023-01-19T16:24:53;14.98;;;7.97;;
69081;SDS011;56184;51.986;5.760;2023-01-19T16:27:23;20.08;;;9.00;;
69081;SDS011;56184;51.986;5.760;2023-01-19T16:29:49;19.50;;;9.02;;
69081;SDS011;56184;51.986;5.760;2023-01-19T16:32:18;18.92;;;8.93;;
69081;SDS011;56184;51.986;5.760;2023-01-19T16:34:49;20.75;;;10.23;;
69081;SDS011;56184;51.986;5.760;2023-01-19T16:37:18;29.20;;;10.00;;
69081;SDS011;56184;51.986;5.760;2023-01-19T16:39:51;20.10;;;10.57;;
69081;SDS011;56184;51.986;5.760;2023-01-19T16:42:25;18.23;;;10.20;;
69081;SDS011;56184;51.986;5.760;2023-01-19T16:44:57;18.55;;;10.77;;
69081;SDS011;56184;51.986;5.760;2023-01-19T16:47:29;19.23;;;10.68;;
69081;SDS011;56184;51.986;5.760;2023-01-19T16:49:54;19.88;;;10.75;;
69081;SDS011;56184;51.986;5.760;2023-01-19T16:52:35;23.25;;;12.07;;
69081;SDS011;56184;51.986;5.760;2023-01-19T16:55:10;30.17;;;13.95;;
69081;SDS011;56184;51.986;5.760;2023-01-19T16:57:39;24.67;;;12.13;;
69081;SDS011;56184;51.986;5.760;2023-01-19T17:00:05;26.27;;;10.73;;
69081;SDS011;56184;51.986;5.760;2023-01-19T17:02:33;21.83;;;9.65;;
69081;SDS011;56184;51.986;5.760;2023-01-19T17:05:01;21.83;;;8.45;;
69081;SDS011;56184;51.986;5.760;2023-01-19T17:07:27;16.17;;;8.65;;
69081;SDS011;56184;51.986;5.760;2023-01-19T17:09:53;17.80;;;9.48;;
69081;SDS011;56184;51.986;5.760;2023-01-19T17:12:18;17.77;;;9.07;;
69081;SDS011;56184;51.986;5.760;2023-01-19T17:14:44;20.00;;;9.23;;
69081;SDS011;56184;51.986;5.760;2023-01-19T17:17:13;24.85;;;10.50;;
69081;SDS011;56184;51.986;5.760;2023-01-19T17:19:53;23.00;;;10.43;;
69081;SDS011;56184;51.986;5.760;2023-01-19T17:22:31;21.83;;;11.48;;
69081;SDS011;56184;51.986;5.760;2023-01-19T17:25:00;20.65;;;11.32;;
69081;SDS011;56184;51.986;5.760;2023-01-19T17:27:38;24.13;;;11.85;;
69081;SDS011;56184;51.986;5.760;2023-01-19T17:30:12;23.65;;;13.00;;
69081;SDS011;56184;51.986;5.760;2023-01-19T17:32:44;22.77;;;11.63;;
69081;SDS011;56184;51.986;5.760;2023-01-19T17:35:22;24.90;;;12.98;;
69081;SDS011;56184;51.986;5.760;2023-01-19T17:37:54;22.95;;;13.30;;
69081;SDS011;56184;51.986;5.760;2023-01-19T17:40:23;26.75;;;14.15;;
69081;SDS011;56184;51.986;5.760;2023-01-19T17:42:50;24.60;;;13.52;;
69081;SDS011;56184;51.986;5.760;2023-01-19T17:45:18;30.85;;;14.38;;
69081;SDS011;56184;51.986;5.760;2023-01-19T17:47:48;26.60;;;15.15;;
69081;SDS011;56184;51.986;5.760;2023-01-19T17:50:25;27.52;;;14.95;;
69081;SDS011;56184;51.986;5.760;2023-01-19T17:52:51;31.17;;;15.38;;
69081;SDS011;56184;51.986;5.760;2023-01-19T17:55:19;26.85;;;14.90;;
69081;SDS011;56184;51.986;5.760;2023-01-19T17:57:50;35.97;;;17.25;;
69081;SDS011;56184;51.986;5.760;2023-01-19T18:00:25;34.03;;;16.33;;
69081;SDS011;56184;51.986;5.760;2023-01-19T18:03:02;31.70;;;16.42;;
69081;SDS011;56184;51.986;5.760;2023-01-19T18:05:35;31.50;;;16.13;;
69081;SDS011;56184;51.986;5.760;2023-01-19T18:08:06;39.65;;;18.33;;
69081;SDS011;56184;51.986;5.760;2023-01-19T18:10:35;33.45;;;15.85;;
69081;SDS011;56184;51.986;5.760;2023-01-19T18:13:08;32.47;;;17.15;;
69081;SDS011;56184;51.986;5.760;2023-01-19T18:15:33;39.00;;;17.08;;
69081;SDS011;56184;51.986;5.760;2023-01-19T18:18:02;36.42;;;18.88;;
69081;SDS011;56184;51.986;5.760;2023-01-19T18:20:28;38.78;;;18.65;;
69081;SDS011;56184;51.986;5.760;2023-01-19T18:22:55;33.40;;;17.73;;